Decoded Metar for KJNX (SMITHFIELD JOHNS in NC, USA) (IATA:JNX) | Meteo·Mobile Aviation Weather
aviador You're here:

KJNX Decoded Metar

SMITHFIELD JOHNS in NC, USA
Report Time2018-09-19 20:10:00
UTC Time2018-09-19 20:24:13
Flight Rules vfr VFR
Wind350° at 03 kt
W.Decomp.*RWY 03: 2.6 kt HW 1.5 kt LCW
W.Rank350° ranks 13
Current wind is below 350° avg. (5.0)
Visibility9999 m
Phenomena:N/A
Clouds:Scattered 050 Hf
Scattered 065 Hf
Expected CloudBase > 4,800 ft AGL from Temp-Dew spread
CeilingNone
Temp31°C (ISA +16)
Dew Point19°C (49% RH)
Heat Index32.4°C
QNH1014 hPa
Density Alt2,290 ft
Elevation164 ft
Report Wrong Elevation
Raw Report
METAR KJNX 192010Z AUTO 35003KT 10SM SCT050 SCT065 31/19 A2993 RMK
AO2=

Extra information for KJNX:More info

Metar Taf Metar & Taf Last 4 Metars F.Rules Stats Wind Profile Meteogram Temp Stats Airport Information Weather charts Add Link Nearby VenuesMetar ALERT Operation Metar Decoded Social comments

AIRNAV info for KJNX